Time,TemperatureF,DewpointF,PressureIn,WindDirection,WindDirectionDegrees,WindSpeedMPH,WindSpeedGustMPH,Humidity,HourlyPrecipIn,Conditions,Clouds,dailyrainin,SolarRadiationWatts/m^2,SoftwareType,DateUTC
2013-11-18 00:21:00,44.0,44.0,-100.00,NNW,341,0.0,1.0,100,-99.99,,,0.00,0.000000,,2013-11-18 08:21:00,
2013-11-18 00:32:00,44.0,44.0,-100.00,NNW,341,0.0,1.0,100,-99.99,,,0.00,0.000000,,2013-11-18 08:32:00,
2013-11-18 00:42:00,44.0,44.0,-100.00,NNW,341,0.0,1.0,100,-99.99,,,0.00,0.000000,,2013-11-18 08:42:00,
2013-11-18 01:22:00,44.0,44.0,-100.00,NE,51,0.0,1.0,100,-99.99,,,0.00,0.000000,,2013-11-18 09:22:00,
2013-11-18 01:33:00,44.0,44.0,-100.00,NE,51,0.0,1.0,100,-99.99,,,0.00,0.000000,,2013-11-18 09:33:00,
2013-11-18 01:43:00,44.0,44.0,-100.00,NE,51,0.0,1.0,100,-99.99,,,0.00,0.000000,,2013-11-18 09:43:00,
2013-11-18 02:23:00,46.0,46.0,-100.00,East,87,1.0,2.0,100,-99.99,,,-99.99,0.000000,,2013-11-18 10:23:00,
2013-11-18 02:33:00,46.0,46.0,-100.00,East,87,1.0,2.0,100,-99.99,,,-99.99,0.000000,,2013-11-18 10:33:00,
2013-11-18 02:43:00,46.0,46.0,-100.00,East,87,1.0,2.0,100,-99.99,,,-99.99,0.000000,,2013-11-18 10:43:00,
2013-11-18 03:12:00,48.0,48.0,-100.00,ESE,107,0.0,2.0,100,-99.99,,,0.00,0.000000,,2013-11-18 11:12:00,
2013-11-18 03:22:00,48.0,48.0,-100.00,ESE,107,0.0,2.0,100,-99.99,,,0.00,0.000000,,2013-11-18 11:22:00,
2013-11-18 03:32:00,48.0,48.0,-100.00,ESE,107,0.0,2.0,100,-99.99,,,0.00,0.000000,,2013-11-18 11:32:00,
2013-11-18 03:42:00,48.0,48.0,-100.00,ESE,107,0.0,2.0,100,-99.99,,,0.00,0.000000,,2013-11-18 11:42:00,
2013-11-18 04:12:00,50.0,48.0,-100.00,SSW,195,3.0,7.0,91,-99.99,,,0.00,0.000000,,2013-11-18 12:12:00,
2013-11-18 04:22:00,50.0,48.0,-100.00,SSW,195,3.0,7.0,91,-99.99,,,0.00,0.000000,,2013-11-18 12:22:00,
2013-11-18 04:32:00,50.0,48.0,-100.00,SSW,195,3.0,7.0,91,-99.99,,,0.00,0.000000,,2013-11-18 12:32:00,
2013-11-18 04:41:00,50.0,48.0,-100.00,SSW,195,3.0,7.0,91,-99.99,,,0.00,0.000000,,2013-11-18 12:41:00,
2013-11-18 05:21:00,52.0,46.0,-100.00,SSE,167,2.0,7.0,80,-99.99,,,0.00,0.000000,,2013-11-18 13:21:00,
2013-11-18 05:32:00,52.0,46.0,-100.00,SSE,167,2.0,7.0,80,-99.99,,,0.00,0.000000,,2013-11-18 13:32:00,
2013-11-18 05:41:00,52.0,46.0,-100.00,SSE,167,2.0,7.0,80,-99.99,,,0.00,0.000000,,2013-11-18 13:41:00,
2013-11-18 06:11:00,50.0,47.0,-100.00,ESE,107,0.0,2.0,90,-99.99,,,0.00,0.000000,,2013-11-18 14:11:00,
2013-11-18 06:22:00,50.0,47.0,-100.00,ESE,107,0.0,2.0,90,-99.99,,,0.00,0.000000,,2013-11-18 14:22:00,
2013-11-18 06:32:00,50.0,47.0,-100.00,ESE,107,0.0,2.0,90,-99.99,,,0.00,0.000000,,2013-11-18 14:32:00,
2013-11-18 06:42:00,50.0,47.0,-100.00,ESE,107,0.0,2.0,90,-99.99,,,0.00,0.000000,,2013-11-18 14:42:00,
2013-11-18 07:22:00,49.0,48.0,-100.00,NNE,31,0.0,1.0,94,-99.99,,,0.00,0.000000,,2013-11-18 15:22:00,
2013-11-18 07:33:00,49.0,48.0,-100.00,NNE,31,0.0,1.0,94,-99.99,,,0.00,0.000000,,2013-11-18 15:33:00,
2013-11-18 07:43:00,49.0,48.0,-100.00,NNE,31,0.0,1.0,94,-99.99,,,0.00,0.000000,,2013-11-18 15:43:00,
2013-11-18 08:23:00,49.0,46.0,-100.00,SE,128,0.0,1.0,91,-99.99,,,0.00,0.000000,,2013-11-18 16:23:00,
2013-11-18 08:33:00,49.0,46.0,-100.00,SE,128,0.0,1.0,91,-99.99,,,0.00,0.000000,,2013-11-18 16:33:00,
2013-11-18 08:42:00,49.0,46.0,-100.00,SE,128,0.0,1.0,91,-99.99,,,0.00,0.000000,,2013-11-18 16:42:00,
2013-11-18 09:22:00,49.0,47.0,-100.00,East,101,1.0,2.0,95,-99.99,,,0.00,13.950000,,2013-11-18 17:22:00,
2013-11-18 09:32:00,49.0,47.0,-100.00,East,101,1.0,2.0,95,-99.99,,,0.00,13.950000,,2013-11-18 17:32:00,
2013-11-18 09:43:00,49.0,47.0,-100.00,East,101,1.0,2.0,95,-99.99,,,0.00,13.950000,,2013-11-18 17:43:00,
2013-11-18 10:23:00,51.0,46.0,-100.00,SSW,192,3.0,7.0,82,-99.99,,,-99.99,67.410004,,2013-11-18 18:23:00,
2013-11-18 10:32:00,51.0,46.0,-100.00,SSW,192,3.0,7.0,82,-99.99,,,-99.99,67.410004,,2013-11-18 18:32:00,
2013-11-18 10:42:00,51.0,46.0,-100.00,SSW,192,3.0,7.0,82,-99.99,,,-99.99,67.410004,,2013-11-18 18:42:00,
2013-11-18 11:00:00,54.0,47.0,-100.00,South,185,7.0,18.0,74,-99.99,,,0.00,83.680000,,2013-11-18 19:00:00,
2013-11-18 12:21:00,54.0,48.0,-100.00,SSW,192,7.0,16.0,80,-99.99,,,0.00,116.220001,,2013-11-18 20:21:00,
2013-11-18 12:32:00,54.0,48.0,-100.00,SSW,192,7.0,16.0,80,-99.99,,,0.00,116.220001,,2013-11-18 20:32:00,
2013-11-18 12:42:00,54.0,48.0,-100.00,SSW,192,7.0,16.0,80,-99.99,,,0.00,116.220001,,2013-11-18 20:42:00,
2013-11-18 13:21:00,55.0,52.0,-100.00,South,183,7.0,14.0,88,-99.99,,,0.00,203.619995,,2013-11-18 21:21:00,
2013-11-18 13:33:00,55.0,52.0,-100.00,South,183,7.0,14.0,88,-99.99,,,0.00,203.619995,,2013-11-18 21:33:00,
2013-11-18 13:43:00,55.0,52.0,-100.00,South,183,7.0,14.0,88,-99.99,,,0.00,203.619995,,2013-11-18 21:43:00,
2013-11-18 14:22:00,55.0,51.0,-100.00,South,191,8.0,19.0,84,-99.99,,,0.00,119.820000,,2013-11-18 22:22:00,
2013-11-18 14:33:00,55.0,51.0,-100.00,South,191,8.0,19.0,84,-99.99,,,0.00,119.820000,,2013-11-18 22:33:00,
2013-11-18 14:43:00,55.0,51.0,-100.00,South,191,8.0,19.0,84,-99.99,,,0.00,119.820000,,2013-11-18 22:43:00,
2013-11-18 15:12:00,53.0,52.0,-100.00,SSW,195,8.0,18.0,94,-99.99,,,0.00,57.299999,,2013-11-18 23:12:00,
2013-11-18 15:21:00,53.0,52.0,-100.00,SSW,195,8.0,18.0,94,-99.99,,,0.00,57.299999,,2013-11-18 23:21:00,
2013-11-18 15:33:00,53.0,52.0,-100.00,SSW,195,8.0,18.0,94,-99.99,,,0.00,57.299999,,2013-11-18 23:33:00,
2013-11-18 15:42:00,53.0,52.0,-100.00,SSW,195,8.0,18.0,94,-99.99,,,0.00,57.299999,,2013-11-18 23:42:00,
2013-11-18 16:21:00,53.0,53.0,-100.00,South,189,9.0,24.0,100,-99.99,,,0.00,41.720001,,2013-11-19 00:21:00,
2013-11-18 16:32:00,53.0,53.0,-100.00,South,189,9.0,24.0,100,-99.99,,,0.00,41.720001,,2013-11-19 00:32:00,
2013-11-18 16:42:00,53.0,53.0,-100.00,South,189,9.0,24.0,100,-99.99,,,0.00,41.720001,,2013-11-19 00:42:00,
2013-11-18 17:21:00,52.0,52.0,-100.00,SSW,201,9.0,20.0,99,-99.99,,,0.00,10.460000,,2013-11-19 01:21:00,
2013-11-18 17:32:00,52.0,52.0,-100.00,SSW,201,9.0,20.0,99,-99.99,,,0.00,10.460000,,2013-11-19 01:32:00,
2013-11-18 17:42:00,52.0,52.0,-100.00,SSW,201,9.0,20.0,99,-99.99,,,0.00,10.460000,,2013-11-19 01:42:00,
2013-11-18 18:22:00,52.0,52.0,-100.00,South,190,7.0,20.0,100,-99.99,,,-99.99,1.160000,,2013-11-19 02:22:00,
2013-11-18 18:32:00,52.0,52.0,-100.00,South,190,7.0,20.0,100,-99.99,,,-99.99,1.160000,,2013-11-19 02:32:00,
2013-11-18 18:42:00,52.0,52.0,-100.00,South,190,7.0,20.0,100,-99.99,,,-99.99,1.160000,,2013-11-19 02:42:00,
2013-11-18 19:11:00,53.0,53.0,-100.00,South,187,8.0,22.0,100,-99.99,,,0.01,0.000000,,2013-11-19 03:11:00,
2013-11-18 19:21:00,53.0,53.0,-100.00,South,187,8.0,22.0,100,-99.99,,,0.01,0.000000,,2013-11-19 03:21:00,
2013-11-18 19:33:00,53.0,53.0,-100.00,South,187,8.0,22.0,100,-99.99,,,0.01,0.000000,,2013-11-19 03:33:00,
2013-11-18 19:43:00,53.0,53.0,-100.00,South,187,8.0,22.0,100,-99.99,,,0.01,0.000000,,2013-11-19 03:43:00,
2013-11-18 20:23:00,54.0,54.0,-100.00,South,181,8.0,28.0,100,-99.99,,,0.02,0.000000,,2013-11-19 04:23:00,
2013-11-18 20:33:00,54.0,54.0,-100.00,South,181,8.0,28.0,100,-99.99,,,0.02,0.000000,,2013-11-19 04:33:00,
2013-11-18 20:42:00,54.0,54.0,-100.00,South,181,8.0,28.0,100,-99.99,,,0.02,0.000000,,2013-11-19 04:42:00,
2013-11-18 21:22:00,54.0,54.0,-100.00,South,188,10.0,27.0,100,-99.99,,,0.02,0.000000,,2013-11-19 05:22:00,
2013-11-18 21:33:00,54.0,54.0,-100.00,South,188,10.0,27.0,100,-99.99,,,0.02,0.000000,,2013-11-19 05:33:00,
2013-11-18 21:43:00,54.0,54.0,-100.00,South,188,10.0,27.0,100,-99.99,,,0.02,0.000000,,2013-11-19 05:43:00,
2013-11-18 22:21:00,55.0,55.0,-100.00,SSW,197,10.0,30.0,100,-99.99,,,0.02,0.000000,,2013-11-19 06:21:00,
2013-11-18 22:31:00,55.0,55.0,-100.00,SSW,197,10.0,30.0,100,-99.99,,,0.02,0.000000,,2013-11-19 06:31:00,
2013-11-18 22:42:00,55.0,55.0,-100.00,SSW,197,10.0,30.0,100,-99.99,,,0.02,0.000000,,2013-11-19 06:42:00,
2013-11-18 23:21:00,55.0,55.0,-100.00,SSW,193,10.0,28.0,100,-99.99,,,0.02,0.000000,,2013-11-19 07:21:00,
2013-11-18 23:32:00,55.0,55.0,-100.00,SSW,193,10.0,28.0,100,-99.99,,,0.02,0.000000,,2013-11-19 07:32:00,
2013-11-18 23:42:00,55.0,55.0,-100.00,SSW,193,10.0,28.0,100,-99.99,,,0.02,0.000000,,2013-11-19 07:42:00,